Time;durP1;ratioP1;P1;durP2;ratioP2;P2;SDS_P1;SDS_P2;PMS_P1;PMS_P2;Temp;Humidity;BMP_temperature;BMP_pressure;BME280_temperature;BME280_humidity;BME280_pressure;Samples;Min_cycle;Max_cycle;Signal;HPM_P1;HPM_P2
2021/01/11 00:01:04;;;;;;;25.60;16.43;;;;;;;-5.53;88.14;95995.31;5003162;28;20993;-73
2021/01/11 00:03:31;;;;;;;27.23;17.17;;;;;;;-5.52;89.04;95992.66;5004724;28;20470;-73
2021/01/11 00:05:58;;;;;;;32.60;20.03;;;;;;;-5.54;88.85;95989.34;5000498;28;20463;-73
2021/01/11 00:08:25;;;;;;;25.73;18.93;;;;;;;-5.58;88.95;95985.25;5003456;28;20988;-73
2021/01/11 00:10:52;;;;;;;24.43;17.20;;;;;;;-5.63;88.56;95989.81;5003474;28;20558;-73
2021/01/11 00:13:19;;;;;;;28.50;17.60;;;;;;;-5.60;88.88;95993.94;5002602;28;20541;-72
2021/01/11 00:15:46;;;;;;;22.10;14.93;;;;;;;-5.70;89.60;95998.72;4983142;28;20558;-73
2021/01/11 00:18:13;;;;;;;34.60;19.13;;;;;;;-5.69;88.77;95995.25;5005447;28;20505;-73
2021/01/11 00:20:40;;;;;;;22.83;17.23;;;;;;;-5.73;89.15;95997.16;5006987;28;20467;-73
2021/01/11 00:23:07;;;;;;;25.87;17.10;;;;;;;-5.68;89.77;95994.34;5008245;28;20467;-73
2021/01/11 00:25:34;;;;;;;20.23;16.10;;;;;;;-5.61;90.14;95990.56;5008758;28;20975;-72
2021/01/11 00:28:01;;;;;;;24.47;15.43;;;;;;;-5.65;89.02;95986.50;5008597;28;20467;-73
2021/01/11 00:30:28;;;;;;;23.43;16.43;;;;;;;-5.77;89.09;95997.38;5005978;28;20522;-73
2021/01/11 00:32:55;;;;;;;21.80;15.27;;;;;;;-5.78;89.81;95991.41;5007863;28;23460;-73
2021/01/11 00:35:23;;;;;;;24.07;14.97;;;;;;;-5.83;89.84;95992.56;5006244;28;20471;-73
2021/01/11 00:37:50;;;;;;;27.20;19.70;;;;;;;-5.82;90.38;96007.06;5008004;28;20475;-73
2021/01/11 00:40:17;;;;;;;22.93;15.00;;;;;;;-5.82;89.87;95991.63;5006642;28;20863;-73
2021/01/11 00:42:44;;;;;;;25.20;17.53;;;;;;;-5.90;90.39;96002.28;5005734;28;20475;-72
2021/01/11 00:45:11;;;;;;;25.80;16.73;;;;;;;-5.89;90.39;95990.28;5005178;28;20529;-73
2021/01/11 00:47:39;;;;;;;25.53;14.93;;;;;;;-5.93;90.36;96002.50;5006529;28;20475;-73
2021/01/11 00:50:09;;;;;;;27.40;16.70;;;;;;;-5.94;90.22;95995.69;4985872;28;20462;-73
2021/01/11 00:52:37;;;;;;;27.73;17.30;;;;;;;-5.91;90.65;95995.53;4995819;28;20526;-73
2021/01/11 00:55:06;;;;;;;26.57;15.90;;;;;;;-5.88;90.88;96004.78;5007395;28;20483;-73
2021/01/11 00:57:37;;;;;;;28.17;18.47;;;;;;;-5.80;90.89;95992.38;4982340;28;20550;-73
2021/01/11 01:00:10;;;;;;;22.87;16.57;;;;;;;-5.76;89.27;95999.03;4988250;28;21092;-73
2021/01/11 01:02:51;;;;;;;23.47;14.27;;;;;;;-5.87;89.28;96011.59;5006410;28;20474;-72
2021/01/11 01:05:18;;;;;;;22.27;15.53;;;;;;;-5.81;88.36;96008.72;4989244;28;20549;-73
2021/01/11 01:07:46;;;;;;;17.53;11.77;;;;;;;-5.93;88.65;96011.94;5007756;28;20475;-72
2021/01/11 01:10:14;;;;;;;15.63;11.60;;;;;;;-6.00;87.87;96005.44;5006149;28;20959;-73
2021/01/11 01:12:41;;;;;;;24.83;14.20;;;;;;;-6.17;88.22;96007.06;5003547;28;20475;-73
2021/01/11 01:15:10;;;;;;;14.83;10.23;;;;;;;-6.20;88.03;96008.97;5003067;28;20874;-73
2021/01/11 01:17:39;;;;;;;17.50;12.60;;;;;;;-6.28;88.84;96006.78;5006832;28;20805;-73
2021/01/11 01:20:14;;;;;;;19.70;12.40;;;;;;;-6.31;89.47;96017.16;5002330;28;20455;-72
2021/01/11 01:22:43;;;;;;;23.17;14.83;;;;;;;-6.30;89.10;96008.59;4990133;28;20471;-73
2021/01/11 01:25:12;;;;;;;24.60;12.70;;;;;;;-6.25;89.37;96009.19;4995884;28;20467;-73
2021/01/11 01:27:40;;;;;;;21.53;15.80;;;;;;;-6.27;89.03;96003.28;5007164;28;20444;-73
2021/01/11 01:30:09;;;;;;;23.60;15.03;;;;;;;-6.25;89.30;96011.75;5011788;28;20460;-73
2021/01/11 01:32:37;;;;;;;22.83;14.13;;;;;;;-6.31;89.13;96012.03;4989566;28;20479;-72
2021/01/11 01:35:09;;;;;;;28.63;15.37;;;;;;;-6.18;89.13;96005.41;4985203;28;20500;-73
2021/01/11 01:37:36;;;;;;;25.40;16.23;;;;;;;-6.17;88.79;96009.63;5000116;28;20475;-72
2021/01/11 01:40:04;;;;;;;23.63;14.40;;;;;;;-6.27;89.03;95998.16;5006145;28;20498;-73
2021/01/11 01:42:32;;;;;;;22.23;15.97;;;;;;;-6.29;88.82;96005.09;5001715;28;20513;-73
2021/01/11 01:44:59;;;;;;;25.27;15.93;;;;;;;-6.30;89.64;96003.44;5005430;28;20525;-72
2021/01/11 01:47:26;;;;;;;22.63;12.67;;;;;;;-6.29;89.88;96005.09;5003380;28;21254;-73
2021/01/11 01:49:54;;;;;;;23.20;13.90;;;;;;;-6.26;90.02;96002.38;5005622;28;20538;-74
2021/01/11 01:52:21;;;;;;;31.37;19.07;;;;;;;-6.09;88.71;96007.53;5007160;28;20476;-72
2021/01/11 01:54:49;;;;;;;20.30;13.13;;;;;;;-6.13;88.79;96000.88;4999023;28;20469;-73
2021/01/11 01:57:17;;;;;;;24.27;15.40;;;;;;;-6.13;88.74;95995.72;5004956;28;20895;-73
2021/01/11 01:59:48;;;;;;;22.23;15.37;;;;;;;-6.23;88.49;95994.53;5004423;28;20518;-72
2021/01/11 02:02:18;;;;;;;27.60;15.43;;;;;;;-6.23;88.07;95998.81;4989114;28;20479;-72
2021/01/11 02:04:45;;;;;;;27.33;16.60;;;;;;;-6.25;88.44;95990.38;4995057;23;20465;-79
2021/01/11 02:07:19;;;;;;;29.67;17.90;;;;;;;-6.21;88.90;95997.03;4977220;28;20997;-79
2021/01/11 02:09:55;;;;;;;25.83;16.27;;;;;;;-6.27;88.24;95995.59;5003742;23;20868;-72
2021/01/11 02:12:27;;;;;;;26.67;17.00;;;;;;;-6.27;88.51;95987.06;5001278;28;20475;-72
2021/01/11 02:15:03;;;;;;;31.30;16.57;;;;;;;-6.23;89.28;95993.69;4986249;28;20531;-72
2021/01/11 02:17:35;;;;;;;28.20;18.00;;;;;;;-6.19;88.87;96000.34;4997544;28;20475;-73
2021/01/11 02:20:27;;;;;;;22.80;15.07;;;;;;;-6.31;89.20;95988.91;4997209;28;20503;-72
2021/01/11 02:23:08;;;;;;;24.80;15.73;;;;;;;-6.30;89.54;95998.31;4999966;28;20538;-72
2021/01/11 02:25:40;;;;;;;32.60;18.17;;;;;;;-6.27;88.90;95994.75;5004402;28;20499;-73
2021/01/11 02:28:19;;;;;;;28.67;14.40;;;;;;;-6.19;89.39;95990.09;5004498;28;20530;-72
2021/01/11 02:30:52;;;;;;;25.30;15.67;;;;;;;-6.21;88.73;95992.72;5000413;28;20476;-72
2021/01/11 02:33:19;;;;;;;20.57;14.87;;;;;;;-6.25;88.89;95996.34;5021654;28;20482;-72
2021/01/11 02:36:00;;;;;;;30.03;17.83;;;;;;;-6.27;89.17;95995.59;5014527;28;20468;-72
2021/01/11 02:38:28;;;;;;;26.47;15.87;;;;;;;-6.29;89.10;95994.00;4988574;28;20471;-72
2021/01/11 02:40:55;;;;;;;21.07;13.60;;;;;;;-6.26;89.66;95997.25;4995383;28;20743;-72
2021/01/11 02:43:22;;;;;;;24.77;17.00;;;;;;;-6.24;89.67;95990.28;5018689;28;20495;-72
2021/01/11 02:45:49;;;;;;;20.83;13.63;;;;;;;-6.19;89.00;95984.94;5019235;28;20702;-72
2021/01/11 02:48:21;;;;;;;23.13;15.20;;;;;;;-6.22;89.00;95990.22;5024887;28;20994;-73
2021/01/11 02:50:59;;;;;;;22.67;14.33;;;;;;;-6.12;89.73;95988.88;4999726;28;20478;-73
2021/01/11 02:53:38;;;;;;;26.17;16.10;;;;;;;-6.09;89.56;95994.69;5000684;28;20471;-72
2021/01/11 02:56:09;;;;;;;29.80;17.40;;;;;;;-6.13;88.64;95985.47;5000772;28;20982;-72
2021/01/11 02:58:46;;;;;;;22.57;14.63;;;;;;;-6.08;89.23;95983.50;5006046;28;20906;-72
2021/01/11 03:01:17;;;;;;;21.67;13.80;;;;;;;-6.05;89.18;95988.47;4997252;28;20493;-73
2021/01/11 03:03:47;;;;;;;18.97;13.80;;;;;;;-6.03;89.20;95991.84;5023879;28;20494;-72
2021/01/11 03:06:14;;;;;;;18.07;12.90;;;;;;;-6.07;88.81;95987.75;5006025;28;20471;-72
2021/01/11 03:08:41;;;;;;;21.80;14.70;;;;;;;-6.02;88.87;95993.50;5025036;28;21343;-71
2021/01/11 03:11:08;;;;;;;21.97;16.67;;;;;;;-6.03;88.78;95986.69;5004710;28;20463;-72
2021/01/11 03:13:35;;;;;;;20.67;14.23;;;;;;;-6.04;89.10;95990.16;5024110;28;20455;-72
2021/01/11 03:16:02;;;;;;;26.93;18.00;;;;;;;-6.03;88.77;95991.00;5006284;28;20495;-72
2021/01/11 03:18:30;;;;;;;19.70;14.07;;;;;;;-5.97;89.68;95990.69;5011276;28;20570;-72
2021/01/11 03:20:57;;;;;;;20.43;14.97;;;;;;;-5.95;89.48;95988.03;5019476;28;20884;-73
2021/01/11 03:23:23;;;;;;;26.70;16.03;;;;;;;-5.93;nan;95989.63;5017888;28;20475;-73
2021/01/11 03:25:50;;;;;;;25.17;15.40;;;;;;;-5.89;89.15;95992.84;5020190;28;20497;-72
2021/01/11 03:28:17;;;;;;;22.07;15.43;;;;;;;-5.87;88.88;95994.41;5021993;28;20467;-73
2021/01/11 03:30:44;;;;;;;22.17;13.60;;;;;;;-5.84;88.86;95990.91;5021767;28;20466;-73
2021/01/11 03:33:11;;;;;;;19.43;15.57;;;;;;;-5.90;89.20;95992.00;5008971;28;20476;-73
2021/01/11 03:35:39;;;;;;;25.90;14.27;;;;;;;-5.94;89.11;95994.81;4999839;28;20813;-72
2021/01/11 03:38:06;;;;;;;23.07;14.23;;;;;;;-6.01;89.07;95994.31;5000854;28;20483;-72
2021/01/11 03:40:32;;;;;;;28.47;16.07;;;;;;;-6.06;88.74;95991.97;5017432;28;20623;-72
2021/01/11 03:43:00;;;;;;;18.90;13.30;;;;;;;-6.01;87.83;95989.19;5018556;28;20472;-73
2021/01/11 03:45:27;;;;;;;23.33;13.77;;;;;;;-6.01;87.60;95984.06;5014745;28;20491;-72
2021/01/11 03:47:53;;;;;;;21.50;15.63;;;;;;;-6.04;87.95;95979.88;5024004;28;21100;-72
2021/01/11 03:50:20;;;;;;;19.40;12.97;;;;;;;-6.07;87.91;95972.31;5021388;28;20467;-72
2021/01/11 03:52:48;;;;;;;26.07;13.87;;;;;;;-6.03;87.48;95971.28;5019135;28;20468;-72
2021/01/11 03:55:15;;;;;;;27.87;13.47;;;;;;;-6.16;87.66;95975.34;4996662;28;20475;-72
2021/01/11 03:57:41;;;;;;;17.80;12.13;;;;;;;-6.19;87.90;95965.22;5004872;28;20522;-72
2021/01/11 04:00:09;;;;;;;18.90;13.20;;;;;;;-6.20;88.43;95968.72;5011363;28;20524;-73
2021/01/11 04:02:36;;;;;;;25.87;14.30;;;;;;;-6.20;88.68;95958.44;5025001;28;20541;-73
2021/01/11 04:05:04;;;;;;;17.67;11.47;;;;;;;-6.14;88.09;95957.28;5000336;28;20459;-73
2021/01/11 04:07:31;;;;;;;25.10;13.63;;;;;;;-6.16;88.39;95954.78;5002739;28;20518;-72
2021/01/11 04:09:59;;;;;;;20.10;13.60;;;;;;;-6.19;88.12;95960.09;5015788;28;20461;-72
2021/01/11 04:12:26;;;;;;;20.13;12.23;;;;;;;-6.14;88.22;95952.16;4999590;28;20470;-72
2021/01/11 04:14:53;;;;;;;22.97;14.77;;;;;;;-6.10;88.27;95953.69;5007866;28;20479;-72
2021/01/11 04:17:20;;;;;;;31.40;14.53;;;;;;;-6.12;88.49;95951.19;5009570;28;20470;-73
2021/01/11 04:19:47;;;;;;;25.00;14.30;;;;;;;-6.05;87.58;95956.84;5014395;28;20494;-72
2021/01/11 04:22:14;;;;;;;25.33;15.67;;;;;;;-6.05;87.82;95957.66;5022882;28;20466;-73
2021/01/11 04:24:42;;;;;;;19.23;13.33;;;;;;;-6.17;87.59;95960.84;5004431;28;20862;-72
2021/01/11 04:27:10;;;;;;;24.20;15.70;;;;;;;-6.21;88.28;95956.78;5010800;28;20455;-73
2021/01/11 04:29:37;;;;;;;18.93;13.03;;;;;;;-6.24;88.66;95961.22;5019501;28;20516;-73
2021/01/11 04:32:04;;;;;;;23.90;12.87;;;;;;;-6.21;88.30;95956.78;4996025;28;20487;-72
2021/01/11 04:34:31;;;;;;;18.53;14.17;;;;;;;-6.13;88.93;95958.94;5015679;28;20501;-72
2021/01/11 04:36:58;;;;;;;21.30;13.67;;;;;;;-6.07;88.74;95964.63;5015991;28;20524;-73
2021/01/11 04:39:25;;;;;;;25.47;16.03;;;;;;;-6.09;88.65;95956.16;5016160;28;20501;-73
2021/01/11 04:41:52;;;;;;;23.23;16.47;;;;;;;-6.07;88.66;95949.19;5018732;28;21089;-73
2021/01/11 04:44:21;;;;;;;22.30;14.17;;;;;;;-6.07;88.33;95959.47;4996737;28;20477;-72
2021/01/11 04:46:49;;;;;;;27.17;14.47;;;;;;;-6.06;89.04;95952.59;5004946;28;20484;-72
2021/01/11 04:49:17;;;;;;;20.73;13.07;;;;;;;-5.99;88.00;95950.56;5013140;28;20978;-72
2021/01/11 04:51:44;;;;;;;16.90;11.77;;;;;;;-6.05;88.10;95965.38;5016976;28;20517;-73
2021/01/11 04:54:13;;;;;;;18.67;11.63;;;;;;;-6.07;87.99;95959.47;5022375;28;20474;-72
2021/01/11 04:56:41;;;;;;;22.83;12.27;;;;;;;-6.06;87.25;95970.59;5021795;28;20483;-72
2021/01/11 04:59:08;;;;;;;22.03;12.63;;;;;;;-6.01;86.95;95971.19;5013933;28;20514;-73
2021/01/11 05:01:36;;;;;;;17.53;10.33;;;;;;;-6.00;86.95;95970.28;5021307;28;21054;-72
2021/01/11 05:04:04;;;;;;;14.47;9.87;;;;;;;-6.10;86.27;95971.66;5006798;28;20494;-72
2021/01/11 05:06:31;;;;;;;15.87;11.80;;;;;;;-6.11;86.67;95970.81;5019780;28;20471;-73
2021/01/11 05:09:05;;;;;;;18.07;12.07;;;;;;;-6.06;87.28;95968.84;5016238;28;20482;-73
2021/01/11 05:11:33;;;;;;;16.87;10.57;;;;;;;-6.12;86.77;95982.00;5005038;28;20474;-72
2021/01/11 05:14:00;;;;;;;17.30;10.83;;;;;;;-6.12;87.10;95994.03;5024618;28;21169;-73
2021/01/11 05:16:27;;;;;;;15.67;11.40;;;;;;;-6.17;86.34;95978.81;5018855;28;21003;-73
2021/01/11 05:19:00;;;;;;;15.20;9.80;;;;;;;-6.17;87.40;95983.97;5019195;28;20520;-72
2021/01/11 05:21:41;;;;;;;19.27;10.50;;;;;;;-6.09;86.63;95997.25;5010301;28;21027;-72
2021/01/11 05:24:35;;;;;;;16.07;10.60;;;;;;;-6.07;86.40;96003.16;5020244;28;20475;-72
2021/01/11 05:27:05;;;;;;;17.07;9.70;;;;;;;-6.14;87.19;95999.22;5010051;28;22426;-72
2021/01/11 05:29:33;;;;;;;14.63;9.30;;;;;;;-6.23;86.95;96002.22;5025725;28;20463;-72
2021/01/11 05:32:02;;;;;;;17.50;10.37;;;;;;;-6.24;87.63;96007.44;5026736;28;20475;-72
2021/01/11 05:34:46;;;;;;;20.13;13.80;;;;;;;-6.19;87.28;96006.31;5020751;28;20455;-73
2021/01/11 05:37:36;;;;;;;11.63;8.90;;;;;;;-6.11;88.05;96011.94;5015202;28;20458;-73
2021/01/11 05:40:06;;;;;;;26.47;15.70;;;;;;;-6.06;87.94;96002.25;5016744;28;21150;-72
2021/01/11 05:42:33;;;;;;;26.50;14.43;;;;;;;-5.99;88.25;96013.06;5002151;28;20989;-72
2021/01/11 05:45:14;;;;;;;23.73;14.43;;;;;;;-5.90;87.93;96011.78;5020613;28;20482;-72
2021/01/11 05:47:58;;;;;;;35.07;19.37;;;;;;;-5.70;87.87;96009.00;4997065;28;20510;-73
2021/01/11 05:50:28;;;;;;;32.17;18.13;;;;;;;-5.62;87.86;96011.19;5020191;28;20975;-72
2021/01/11 05:52:56;;;;;;;30.23;17.23;;;;;;;-5.65;87.21;96022.47;5023537;28;20999;-73
2021/01/11 05:55:24;;;;;;;29.20;14.53;;;;;;;-5.70;86.93;96010.75;5027077;28;21045;-73
2021/01/11 05:57:59;;;;;;;23.07;15.23;;;;;;;-5.71;87.17;96007.34;5027071;28;20470;-72
2021/01/11 06:00:28;;;;;;;23.27;13.33;;;;;;;-5.75;87.26;96000.72;5016926;28;20463;-72
2021/01/11 06:02:57;;;;;;;26.57;16.00;;;;;;;-5.73;87.03;96006.59;5027106;28;21015;-72
2021/01/11 06:05:27;;;;;;;24.23;13.67;;;;;;;-5.74;87.44;96002.38;5016992;28;20878;-73
2021/01/11 06:07:54;;;;;;;25.57;16.80;;;;;;;-5.81;87.43;96006.97;4999700;28;20459;-72
2021/01/11 06:10:22;;;;;;;24.77;15.20;;;;;;;-5.81;87.55;96006.16;5005174;28;20923;-72
2021/01/11 06:12:50;;;;;;;23.47;15.03;;;;;;;-5.82;87.48;96013.03;5026586;28;20462;-72
2021/01/11 06:15:18;;;;;;;18.57;11.70;;;;;;;-5.85;87.34;96012.34;5024887;28;20459;-72
2021/01/11 06:17:47;;;;;;;26.33;12.73;;;;;;;-5.84;87.72;96016.59;5003966;28;20530;-72
2021/01/11 06:20:17;;;;;;;23.23;15.13;;;;;;;-5.84;87.38;96014.03;5020328;28;20476;-73
2021/01/11 06:23:27;;;;;;;23.43;14.50;;;;;;;-5.81;87.07;96011.28;5026098;28;20524;-72
2021/01/11 06:25:55;;;;;;;23.47;14.20;;;;;;;-5.74;87.57;96017.78;5025154;28;20470;-72
2021/01/11 06:28:33;;;;;;;24.03;14.50;;;;;;;-5.80;86.50;96005.25;5026519;28;20496;-72
2021/01/11 06:31:11;;;;;;;19.87;11.77;;;;;;;-5.82;86.28;96015.59;5021309;28;20466;-72
2021/01/11 06:33:40;;;;;;;26.70;15.23;;;;;;;-5.75;87.08;96016.13;5016478;28;20470;-72
2021/01/11 06:36:24;;;;;;;20.80;14.50;;;;;;;-5.70;86.50;96021.84;5024739;28;20542;-73
2021/01/11 06:38:53;;;;;;;24.70;12.63;;;;;;;-5.79;86.37;96019.75;5026106;28;20848;-72
2021/01/11 06:41:21;;;;;;;23.30;16.50;;;;;;;-5.91;86.51;96025.53;5021282;28;20467;-73
2021/01/11 06:43:50;;;;;;;21.27;12.70;;;;;;;-5.99;87.16;96032.78;5023981;28;20502;-72
2021/01/11 06:46:43;;;;;;;22.80;12.73;;;;;;;-5.95;87.92;96029.13;5025159;28;20528;-69
2021/01/11 06:49:23;;;;;;;18.30;11.40;;;;;;;-5.89;87.96;96033.97;5021817;28;20467;-68
2021/01/11 06:52:01;;;;;;;15.83;10.90;;;;;;;-5.88;87.85;96030.47;5021613;28;20461;-69
2021/01/11 06:54:45;;;;;;;17.77;11.93;;;;;;;-5.97;86.52;96025.81;5025868;28;20532;-69
2021/01/11 06:57:16;;;;;;;21.20;13.53;;;;;;;-6.04;87.24;96031.25;5008074;28;20467;-68
2021/01/11 06:59:46;;;;;;;24.37;13.70;;;;;;;-6.02;86.43;96024.31;5025166;28;20454;-68
2021/01/11 07:02:21;;;;;;;21.97;13.83;;;;;;;-6.05;86.62;96023.63;5001304;28;20483;-68
2021/01/11 07:04:49;;;;;;;21.90;12.57;;;;;;;-6.06;86.84;96022.78;5016902;28;20533;-69
2021/01/11 07:07:19;;;;;;;21.43;12.73;;;;;;;-6.04;86.89;96020.97;5012456;28;20463;-69
2021/01/11 07:09:54;;;;;;;18.00;13.57;;;;;;;-6.14;86.30;96030.03;5010274;28;20516;-69
2021/01/11 07:12:22;;;;;;;20.93;15.43;;;;;;;-6.26;86.11;96032.38;5025223;28;20466;-69
2021/01/11 07:14:57;;;;;;;20.27;14.43;;;;;;;-6.27;86.63;96035.84;5022482;28;20524;-69
2021/01/11 07:17:34;;;;;;;22.87;17.10;;;;;;;-6.24;87.48;96039.09;4999967;28;20494;-69
2021/01/11 07:20:01;;;;;;;22.60;13.20;;;;;;;-6.09;87.15;96037.53;4991866;28;20474;-68
2021/01/11 07:22:28;;;;;;;21.60;11.90;;;;;;;-6.20;86.07;96034.66;5022163;28;20559;-68
2021/01/11 07:24:56;;;;;;;18.63;11.53;;;;;;;-6.27;86.49;96039.25;5014685;28;20477;-69
2021/01/11 07:27:23;;;;;;;17.73;10.73;;;;;;;-6.36;87.79;96037.09;5023488;28;20921;-68
2021/01/11 07:29:49;;;;;;;16.00;12.37;;;;;;;-6.38;87.49;96033.78;5007735;28;20574;-69
2021/01/11 07:32:16;;;;;;;20.20;12.27;;;;;;;-6.32;87.89;96025.78;5024014;28;20470;-68
2021/01/11 07:34:43;;;;;;;23.63;12.27;;;;;;;-6.26;88.24;96025.50;5015210;28;20463;-68
2021/01/11 07:37:13;;;;;;;21.07;12.93;;;;;;;-6.22;87.42;96027.00;5000036;28;20483;-68
2021/01/11 07:39:40;;;;;;;24.87;15.07;;;;;;;-6.21;87.54;96031.25;5024599;28;20470;-68
2021/01/11 07:42:08;;;;;;;19.97;12.67;;;;;;;-6.16;88.00;96028.44;5020433;28;20473;-69
2021/01/11 07:44:36;;;;;;;20.43;14.33;;;;;;;-6.09;87.03;96037.53;5023000;28;20477;-69
2021/01/11 07:47:11;;;;;;;20.10;12.33;;;;;;;-6.04;87.27;96041.53;5006993;28;20478;-68
2021/01/11 07:49:40;;;;;;;27.33;15.00;;;;;;;-6.02;87.04;96046.63;5014512;28;20940;-68
2021/01/11 07:52:09;;;;;;;23.97;16.43;;;;;;;-6.04;86.29;96041.53;5004798;28;20475;-68
2021/01/11 07:54:37;;;;;;;29.53;16.17;;;;;;;-6.05;87.08;96039.88;5017282;28;20466;-68
2021/01/11 07:57:09;;;;;;;28.53;17.10;;;;;;;-6.00;86.83;96041.41;5011283;28;20491;-68
2021/01/11 07:59:36;;;;;;;23.83;15.50;;;;;;;-5.93;86.80;96032.50;5019769;28;20513;-68
2021/01/11 08:02:04;;;;;;;27.13;16.33;;;;;;;-5.80;86.88;96043.78;5018330;28;20502;-68
2021/01/11 08:04:36;;;;;;;27.33;14.37;;;;;;;-5.80;86.50;96043.78;5007623;28;20557;-69
2021/01/11 08:07:06;;;;;;;32.83;20.97;;;;;;;-5.79;85.41;96041.13;5014938;28;20529;-69
2021/01/11 08:09:34;;;;;;;26.83;17.80;;;;;;;-5.75;85.96;96049.53;5014571;28;20529;-69
2021/01/11 08:12:06;;;;;;;35.97;15.17;;;;;;;-5.83;85.95;96054.22;5024035;28;20458;-69
2021/01/11 08:14:34;;;;;;;22.30;13.80;;;;;;;-5.77;85.09;96048.75;5018719;28;20462;-69
2021/01/11 08:17:02;;;;;;;24.93;13.47;;;;;;;-5.75;84.98;96052.94;5021956;28;20470;-69
2021/01/11 08:19:30;;;;;;;23.00;14.30;;;;;;;-5.79;83.93;96060.88;5019603;28;20500;-69
2021/01/11 08:21:58;;;;;;;25.80;13.60;;;;;;;-5.74;84.37;96061.50;4989431;28;20471;-69
2021/01/11 08:24:26;;;;;;;20.80;12.63;;;;;;;-5.69;83.54;96059.50;5011228;28;20498;-69
2021/01/11 08:27:02;;;;;;;22.83;14.13;;;;;;;-5.59;83.28;96065.84;5024956;28;21230;-69
2021/01/11 08:29:32;;;;;;;28.40;13.80;;;;;;;-5.54;83.95;96058.75;5014342;28;20474;-69
2021/01/11 08:32:00;;;;;;;19.57;13.23;;;;;;;-5.43;82.92;96061.63;5019719;28;20484;-69
2021/01/11 08:34:27;;;;;;;18.57;11.33;;;;;;;-5.44;82.54;96067.66;5019684;28;20569;-69
2021/01/11 08:36:54;;;;;;;20.03;12.83;;;;;;;-5.35;83.12;96062.97;5016657;28;20562;-69
2021/01/11 08:39:21;;;;;;;27.27;16.57;;;;;;;-5.31;82.63;96062.72;5024844;28;20463;-69
2021/01/11 08:41:50;;;;;;;29.57;15.43;;;;;;;-5.03;84.17;96067.31;5005613;28;20517;-69
2021/01/11 08:44:30;;;;;;;28.60;17.13;;;;;;;-4.69;82.67;96075.84;5023318;28;20549;-69
2021/01/11 08:47:03;;;;;;;21.00;14.77;;;;;;;-4.44;80.46;96083.09;5025123;28;20458;-69
2021/01/11 08:49:31;;;;;;;23.80;14.53;;;;;;;-4.30;78.33;96083.16;5013299;28;20462;-69
2021/01/11 08:52:09;;;;;;;27.57;17.07;;;;;;;-4.16;77.45;96085.00;5013435;28;20471;-69
2021/01/11 08:54:37;;;;;;;18.07;12.43;;;;;;;-3.62;77.11;96090.56;5020316;28;20482;-70
2021/01/11 08:57:13;;;;;;;17.23;14.57;;;;;;;-3.05;74.72;96090.69;5028205;28;20533;-70
2021/01/11 08:59:50;;;;;;;19.83;12.97;;;;;;;-2.54;71.24;96091.91;5025416;28;20520;-70
2021/01/11 09:02:28;;;;;;;15.90;10.40;;;;;;;-1.59;67.62;96097.13;5011383;28;20507;-69
2021/01/11 09:04:57;;;;;;;17.43;11.50;;;;;;;-0.81;63.67;96098.91;5018733;28;20506;-70
2021/01/11 09:07:34;;;;;;;18.43;13.43;;;;;;;-0.50;61.37;96088.09;5023549;28;20493;-70
2021/01/11 09:10:17;;;;;;;32.73;14.73;;;;;;;-0.46;60.78;96084.34;5027176;28;20458;-70
2021/01/11 09:12:44;;;;;;;14.70;10.00;;;;;;;-0.58;61.04;96092.97;5020759;28;20471;-69
2021/01/11 09:15:14;;;;;;;14.67;10.07;;;;;;;-1.18;61.71;96093.59;5007863;28;20487;-69
2021/01/11 09:17:42;;;;;;;13.73;10.67;;;;;;;-1.33;63.27;96097.19;5007526;28;20509;-69
2021/01/11 09:20:09;;;;;;;19.90;11.97;;;;;;;-1.50;64.20;96096.53;5021833;28;20538;-69
2021/01/11 09:22:39;;;;;;;18.00;10.47;;;;;;;-1.55;64.70;96093.41;5026401;28;20471;-69
2021/01/11 09:25:09;;;;;;;14.83;11.17;;;;;;;-1.55;64.55;96098.59;5026132;28;20466;-70
2021/01/11 09:27:37;;;;;;;17.90;10.80;;;;;;;-1.39;64.32;96107.94;5027657;28;20458;-70
2021/01/11 09:30:06;;;;;;;14.40;10.47;;;;;;;-1.32;62.71;96104.03;5018278;28;20498;-70
2021/01/11 09:32:33;;;;;;;12.97;9.60;;;;;;;-1.27;62.09;96107.16;5007944;28;20580;-69
2021/01/11 09:35:01;;;;;;;16.30;10.13;;;;;;;-1.41;62.30;96117.56;5012330;28;21236;-70
2021/01/11 09:37:28;;;;;;;18.37;10.43;;;;;;;-1.27;62.67;96123.50;5021278;28;20573;-70
2021/01/11 09:39:55;;;;;;;14.57;11.73;;;;;;;-0.89;62.32;96122.75;5000893;28;20463;-70
2021/01/11 09:42:22;;;;;;;13.33;11.30;;;;;;;-0.50;60.07;96129.56;5019115;28;20474;-70
2021/01/11 09:44:49;;;;;;;15.53;10.73;;;;;;;-0.21;59.08;96121.56;5024410;28;20556;-70
2021/01/11 09:47:16;;;;;;;18.70;11.13;;;;;;;-0.38;61.23;96117.53;5008379;28;20498;-70
2021/01/11 09:49:43;;;;;;;12.00;10.23;;;;;;;-0.90;60.13;96121.91;5025523;28;20528;-70
2021/01/11 09:52:10;;;;;;;22.00;12.77;;;;;;;-1.23;60.13;96118.94;5005967;28;20505;-70
2021/01/11 09:54:37;;;;;;;17.13;10.63;;;;;;;-1.80;63.04;96114.03;5007021;28;20503;-70
2021/01/11 09:57:05;;;;;;;19.00;10.80;;;;;;;-2.19;64.89;96112.19;5012599;28;20465;-70
2021/01/11 09:59:32;;;;;;;17.30;13.27;;;;;;;-2.58;65.05;96117.09;5023143;28;20600;-70
2021/01/11 10:01:58;;;;;;;14.83;9.83;;;;;;;-2.98;66.18;96104.91;5011644;28;20459;-70
2021/01/11 10:04:25;;;;;;;16.50;11.87;;;;;;;-3.06;66.33;96107.94;5022422;28;20496;-70
2021/01/11 10:06:55;;;;;;;15.23;10.63;;;;;;;-3.16;67.14;96102.47;5019027;28;21068;-70
2021/01/11 10:09:24;;;;;;;20.33;13.53;;;;;;;-3.20;67.03;96103.59;5025700;28;20493;-70
2021/01/11 10:11:53;;;;;;;17.17;11.20;;;;;;;-3.23;67.22;96083.09;5021823;28;20470;-70
2021/01/11 10:14:20;;;;;;;14.70;10.60;;;;;;;-3.26;68.27;96088.47;5006815;28;20559;-72
2021/01/11 10:16:49;;;;;;;17.03;13.60;;;;;;;-3.28;70.04;96077.41;5014507;28;20513;-70
2021/01/11 10:19:18;;;;;;;16.27;11.43;;;;;;;-3.27;70.81;96086.81;5020429;28;20483;-70
2021/01/11 10:21:45;;;;;;;27.23;13.37;;;;;;;-3.31;70.77;96080.13;5007590;28;20466;-70
2021/01/11 10:24:14;;;;;;;25.80;15.83;;;;;;;-3.27;70.42;96075.66;5026105;28;20840;-70
2021/01/11 10:26:46;;;;;;;23.87;13.60;;;;;;;-3.29;70.44;96068.00;5026374;28;20471;-70
2021/01/11 10:29:14;;;;;;;22.33;15.97;;;;;;;-3.50;71.46;96070.06;5025143;28;20470;-70
2021/01/11 10:31:41;;;;;;;15.70;10.47;;;;;;;-3.73;70.74;96063.66;5002804;28;20463;-70
2021/01/11 10:34:09;;;;;;;17.30;10.03;;;;;;;-3.80;72.33;96061.50;5021409;28;20460;-70
2021/01/11 10:36:39;;;;;;;14.90;11.23;;;;;;;-3.61;71.54;96058.69;5006063;28;20462;-70
2021/01/11 10:39:09;;;;;;;20.63;11.13;;;;;;;-3.40;70.89;96048.88;5006750;28;20558;-70
2021/01/11 10:41:37;;;;;;;18.53;12.17;;;;;;;-3.33;70.80;96050.19;5010062;28;20532;-70
2021/01/11 10:44:05;;;;;;;23.63;12.60;;;;;;;-3.18;71.87;96055.28;5018650;28;20737;-70
2021/01/11 10:46:33;;;;;;;24.27;13.73;;;;;;;-3.02;71.40;96049.19;5014395;28;20530;-70
2021/01/11 10:49:00;;;;;;;20.57;10.80;;;;;;;-3.02;69.31;96051.78;5022656;28;20455;-70
2021/01/11 10:51:27;;;;;;;19.63;12.93;;;;;;;-2.95;70.50;96045.34;5020384;28;20560;-70
2021/01/11 10:53:54;;;;;;;21.00;13.83;;;;;;;-3.00;70.63;96037.06;5014859;28;20553;-70
2021/01/11 10:56:21;;;;;;;20.10;14.33;;;;;;;-3.02;70.65;96044.88;5018565;28;20533;-70
2021/01/11 10:58:48;;;;;;;21.60;12.90;;;;;;;-3.04;70.90;96045.88;5025553;28;20532;-70
2021/01/11 11:01:16;;;;;;;23.63;14.73;;;;;;;-2.93;70.40;96048.66;5015923;28;20554;-70
2021/01/11 11:03:43;;;;;;;23.70;15.70;;;;;;;-2.92;71.00;96047.75;5012081;28;20835;-70
2021/01/11 11:06:13;;;;;;;28.23;16.23;;;;;;;-3.02;71.23;96051.78;5023170;28;20569;-70
2021/01/11 11:08:40;;;;;;;27.00;15.17;;;;;;;-3.65;73.42;96062.38;5022300;28;21057;-70
2021/01/11 11:11:07;;;;;;;25.63;15.97;;;;;;;-3.63;73.13;96063.13;5002638;28;20477;-70
2021/01/11 11:13:34;;;;;;;22.63;14.50;;;;;;;-3.51;71.68;96057.25;4993575;28;20494;-70
2021/01/11 11:16:06;;;;;;;24.20;14.73;;;;;;;-3.60;73.70;96062.94;5013391;28;21030;-70
2021/01/11 11:18:34;;;;;;;22.80;14.70;;;;;;;-3.82;74.09;96061.59;5023141;28;20506;-70
2021/01/11 11:21:04;;;;;;;23.83;13.63;;;;;;;-3.69;74.09;96061.72;5022131;28;20486;-70
2021/01/11 11:23:31;;;;;;;24.20;13.90;;;;;;;-3.53;74.24;96047.03;5022358;28;20891;-70
2021/01/11 11:25:59;;;;;;;18.87;14.20;;;;;;;-3.42;73.90;96036.06;5023834;28;20475;-70
2021/01/11 11:28:27;;;;;;;21.70;13.27;;;;;;;-3.24;72.94;96035.00;5023762;28;20467;-70